C75 weather

Marshall County Airport
Lacon, Illinois, United States

Public forecast

Using degrees Fahrenheit for public forecast. Weather courtesy of forecast.io.

METAR (pilot weather report)

Retrieved 2019/06/19 23:35 UTC (0 seconds ago):

KC75 192335Z AUTO 06009G14KT 3SM +RA SCT026 OVC035 18/17 A2963 RMK AO2 P0003 T01800170

TAF (pilot weather forecast)

Closest forecast is General Wayne A. Downing Peoria International Airport, 25.5 nm (47.2 km) SSW. Retrieved 2019/06/19 18:22 UTC (5 hours ago):

TAF KPIA 191720Z 1918/2018 06008KT P6SM -RA VCTS BKN035CB OVC060 TEMPO 1918/1921 4SM TSRA BR OVC025CB FM200000 05005KT 4SM -SHRA BR OVC025 TEMPO 2001/2003 2SM TSRA BR OVC015CB FM201000 36005KT P6SM VCSH BKN025 FM201400 36005KT P6SM BKN009 FM201700 VRB04KT P6SM SCT015